Main page
METAR-TAF:

METAR-TAF

Airports :

Fuaʻamotu International Airport

Tongatapu, Tonga

latitude: 21-14S, longitude: 175-09W, elevation: 38 m

Current weather observation

The report was made 2 hours and 23 minutes ago, at 21:00 UTC
Wind 7 kt from the Southwest
Temperature 28°C
Humidity 84%
Pressure 1009 hPa
Visibility 10 km or more
Scattered clouds at a height of 900 ft
Broken clouds at a height of 11000 ft

METAR: NFTF 212100Z 23007KT 9999 SCT009 BKN110 28/25 Q1009

Time: 12:23 (23:23 UTC)

Forecast

The report was made 4 hours and 5 minutes ago, at 19:18 UTC
Forecast valid from 21 at 20 UTC to 22 at 18 UTC
Wind 6 kt from the South/Southwest
Visibility 10 km or more
Scattered clouds at a height of 1800 ft
Probability 30% :
Temporary
from 21 at 20 UTC to 21 at 24 UTC
Visibility: 5000 m
Broken clouds at a height of 1500 ft
rain showers

TAF: NFTF 211918Z 2120/2218 20006KT 9999 SCT018 PROB30 TEMPO 2120/2124 5000 SHRA BKN015

Weather observations and forecasts of more than 4000 airports (METAR and TAF reports).

The available stations are represented by yellow and red dots on the map.

Hover mouse over dot to see the name of the station.

Then click to see weather observations and forecasts.

To change the map : click on the green buttons with a black cross to zoom in, on the green button with a dash to zoom out, or on the green arrows for adjacent maps.


METAR-TAF: